Time;durP1;ratioP1;P1;durP2;ratioP2;P2;SDS_P1;SDS_P2;PMS_P1;PMS_P2;Temp;Humidity;BMP_temperature;BMP_pressure;BME280_temperature;BME280_humidity;BME280_pressure;Samples;Min_cycle;Max_cycle;Signal;HPM_P1;HPM_P2
2022/01/15 00:00:13;;;;;;;12.18;9.00;;;3.20;99.90;;;;;;5085750;28;20295;-67
2022/01/15 00:02:40;;;;;;;8.40;6.85;;;3.10;99.90;;;;;;5079085;28;20229;-67
2022/01/15 00:05:09;;;;;;;14.13;8.93;;;3.10;99.90;;;;;;5081889;28;20247;-67
2022/01/15 00:07:36;;;;;;;16.40;6.93;;;3.10;99.90;;;;;;5079588;28;20209;-69
2022/01/15 00:10:04;;;;;;;11.05;8.32;;;3.00;99.90;;;;;;5077841;28;20254;-67
2022/01/15 00:12:38;;;;;;;11.27;6.93;;;3.00;99.90;;;;;;5068594;28;20285;-67
2022/01/15 00:15:06;;;;;;;10.15;7.00;;;3.00;99.90;;;;;;5069787;28;20315;-67
2022/01/15 00:17:45;;;;;;;9.50;6.28;;;3.00;99.90;;;;;;5093998;28;20211;-66
2022/01/15 00:20:16;;;;;;;11.60;7.20;;;3.00;99.90;;;;;;5086099;28;20259;-66
2022/01/15 00:22:43;;;;;;;12.73;9.65;;;3.00;99.90;;;;;;5095485;28;20247;-66
2022/01/15 00:25:10;;;;;;;12.50;7.68;;;3.00;99.90;;;;;;5078078;28;20624;-66
2022/01/15 00:27:37;;;;;;;9.77;7.55;;;2.90;99.90;;;;;;5085105;28;20310;-70
2022/01/15 00:30:05;;;;;;;10.00;6.97;;;2.90;99.90;;;;;;5072199;28;20212;-67
2022/01/15 00:32:32;;;;;;;9.75;7.95;;;2.80;99.90;;;;;;5077319;28;20217;-67
2022/01/15 00:35:00;;;;;;;10.15;7.43;;;2.80;99.90;;;;;;5084984;28;20274;-68
2022/01/15 00:37:30;;;;;;;17.05;8.95;;;2.80;99.90;;;;;;5078044;28;20288;-68
2022/01/15 00:39:58;;;;;;;13.50;7.65;;;2.80;99.90;;;;;;5080218;28;20412;-67
2022/01/15 00:42:24;;;;;;;10.50;8.82;;;2.80;99.90;;;;;;5081807;28;20232;-66
2022/01/15 00:44:51;;;;;;;13.48;10.77;;;2.80;99.90;;;;;;5101028;28;20245;-66
2022/01/15 00:47:18;;;;;;;13.98;8.05;;;2.80;99.90;;;;;;5104675;28;20272;-67
2022/01/15 00:49:45;;;;;;;10.98;6.22;;;2.70;99.90;;;;;;5096378;28;20254;-69
2022/01/15 00:52:11;;;;;;;16.65;9.85;;;2.80;99.90;;;;;;5079952;28;20615;-67
2022/01/15 00:54:39;;;;;;;11.35;7.95;;;2.80;99.90;;;;;;5073491;28;20658;-66
2022/01/15 00:57:06;;;;;;;9.57;5.53;;;2.70;99.90;;;;;;5089741;28;20272;-67
2022/01/15 00:59:33;;;;;;;12.40;6.75;;;2.60;99.90;;;;;;5086249;28;20258;-66
2022/01/15 01:01:59;;;;;;;13.45;8.30;;;2.60;99.90;;;;;;5082890;28;20709;-66
2022/01/15 01:04:26;;;;;;;12.68;7.60;;;2.60;99.90;;;;;;5083797;28;20205;-66
2022/01/15 01:06:53;;;;;;;13.18;8.23;;;2.60;99.90;;;;;;5088198;28;20589;-66
2022/01/15 01:09:20;;;;;;;9.20;6.80;;;2.50;99.90;;;;;;5089596;28;20208;-67
2022/01/15 01:11:55;;;;;;;11.57;7.30;;;2.40;99.90;;;;;;5086390;28;20347;-67
2022/01/15 01:20:09;;;;;;;13.95;7.45;;;2.30;99.90;;;;;;5009503;28;20214;-68
2022/01/15 01:22:56;;;;;;;8.45;5.97;;;2.30;99.90;;;;;;5043747;28;20223;-67
2022/01/15 01:25:27;;;;;;;8.68;6.53;;;2.40;99.90;;;;;;5079948;28;20727;-68
2022/01/15 01:28:03;;;;;;;11.45;6.53;;;2.30;99.90;;;;;;5088991;28;20335;-65
2022/01/15 01:30:36;;;;;;;10.45;6.10;;;2.30;99.90;;;;;;5083364;28;20322;-66
2022/01/15 01:33:16;;;;;;;11.15;6.30;;;2.30;99.90;;;;;;5079972;28;20703;-67
2022/01/15 01:35:46;;;;;;;11.27;6.25;;;2.30;99.90;;;;;;5076707;28;20388;-67
2022/01/15 01:38:19;;;;;;;9.40;6.47;;;2.30;99.90;;;;;;5074305;28;20288;-66
2022/01/15 01:40:49;;;;;;;8.43;6.32;;;2.30;99.90;;;;;;5081275;28;20208;-67
2022/01/15 01:46:21;;;;;;;11.90;6.15;;;2.30;99.90;;;;;;5064840;28;20226;-68
2022/01/15 01:48:49;;;;;;;6.10;4.13;;;2.20;99.90;;;;;;5086966;28;20559;-67
2022/01/15 01:51:23;;;;;;;9.90;5.55;;;2.20;99.90;;;;;;5079963;28;20205;-67
2022/01/15 01:53:51;;;;;;;9.70;6.80;;;2.20;99.90;;;;;;5070274;28;20266;-66
2022/01/15 01:56:18;;;;;;;9.18;7.45;;;2.20;99.90;;;;;;5081279;28;20248;-66
2022/01/15 01:58:46;;;;;;;10.57;5.32;;;2.20;99.90;;;;;;5085464;28;20216;-66
2022/01/15 02:01:13;;;;;;;5.28;4.63;;;2.20;99.90;;;;;;5088408;28;20692;-67
2022/01/15 02:03:40;;;;;;;7.93;6.30;;;2.10;99.90;;;;;;5078779;28;20760;-66
2022/01/15 02:06:07;;;;;;;7.55;5.68;;;2.10;99.90;;;;;;5084484;28;20258;-66
2022/01/15 02:08:35;;;;;;;12.95;6.97;;;2.10;99.90;;;;;;5084013;28;20437;-68
2022/01/15 02:11:04;;;;;;;9.63;6.97;;;2.10;99.90;;;;;;5084392;28;20216;-66
2022/01/15 02:13:31;;;;;;;10.48;6.90;;;2.10;99.90;;;;;;5089085;28;20232;-66
2022/01/15 02:16:02;;;;;;;6.60;4.93;;;2.10;99.90;;;;;;5090416;28;20220;-67
2022/01/15 02:18:29;;;;;;;7.82;4.70;;;2.20;99.90;;;;;;5081743;28;20212;-67
2022/01/15 02:23:32;;;;;;;4.47;3.97;;;2.10;99.90;;;;;;5082661;28;20201;-66
2022/01/15 02:23:50;;;;;;;6.97;4.50;;;2.10;99.90;;;;;;5072872;28;20587;-66
2022/01/15 02:26:18;;;;;;;9.55;6.18;;;2.10;99.90;;;;;;5085062;28;20193;-68
2022/01/15 02:28:51;;;;;;;7.32;6.38;;;2.10;99.90;;;;;;5084704;28;20266;-66
2022/01/15 02:31:20;;;;;;;9.88;5.43;;;2.20;99.90;;;;;;5080461;28;20299;-65
2022/01/15 02:33:49;;;;;;;9.20;4.30;;;2.20;99.90;;;;;;5079872;28;21305;-68
2022/01/15 02:36:19;;;;;;;9.32;5.53;;;2.20;99.90;;;;;;5076673;28;20244;-66
2022/01/15 02:38:46;;;;;;;6.80;5.18;;;2.20;99.90;;;;;;5086483;28;20658;-67
2022/01/15 02:41:14;;;;;;;6.03;5.40;;;2.20;99.90;;;;;;5087322;28;20231;-67
2022/01/15 02:43:41;;;;;;;9.07;5.78;;;2.20;99.90;;;;;;5088103;28;20224;-67
2022/01/15 02:46:21;;;;;;;6.65;5.93;;;2.20;99.90;;;;;;5077884;28;20251;-68
2022/01/15 02:48:48;;;;;;;7.45;5.40;;;2.30;99.90;;;;;;5083003;28;20203;-67
2022/01/15 02:51:15;;;;;;;9.13;4.47;;;2.20;99.90;;;;;;5090899;28;20223;-68
2022/01/15 02:53:43;;;;;;;4.85;4.45;;;2.30;99.90;;;;;;5093914;28;20216;-67
2022/01/15 02:56:10;;;;;;;5.80;4.78;;;2.20;99.90;;;;;;5082058;28;20229;-67
2022/01/15 02:58:37;;;;;;;10.32;5.00;;;2.20;99.90;;;;;;5088518;28;20226;-66
2022/01/15 03:01:06;;;;;;;16.02;6.88;;;2.20;99.90;;;;;;5095676;28;20284;-67
2022/01/15 03:03:33;;;;;;;9.18;4.88;;;2.20;99.90;;;;;;5082350;28;20279;-66
2022/01/15 03:06:00;;;;;;;7.13;5.25;;;2.20;99.90;;;;;;5083723;28;20280;-66
2022/01/15 03:08:26;;;;;;;9.30;5.30;;;2.20;99.90;;;;;;5078746;28;20197;-67
2022/01/15 03:10:54;;;;;;;9.68;5.80;;;2.20;99.90;;;;;;5092600;28;20196;-67
2022/01/15 03:13:21;;;;;;;4.75;4.32;;;2.20;99.90;;;;;;5092199;28;20220;-66
2022/01/15 03:15:47;;;;;;;6.50;5.40;;;2.20;99.90;;;;;;5091172;28;20204;-69
2022/01/15 03:18:14;;;;;;;8.23;5.57;;;2.20;99.90;;;;;;5086197;28;20647;-66
2022/01/15 03:20:41;;;;;;;10.57;6.15;;;2.10;99.90;;;;;;5078383;28;20205;-69
2022/01/15 03:23:07;;;;;;;6.10;4.90;;;2.10;99.90;;;;;;5081076;28;20251;-66
2022/01/15 03:25:34;;;;;;;6.80;4.47;;;2.10;99.90;;;;;;5077147;28;20264;-67
2022/01/15 03:28:02;;;;;;;6.85;3.95;;;2.10;99.90;;;;;;5081591;28;20231;-66
2022/01/15 03:30:29;;;;;;;3.60;3.28;;;2.10;99.90;;;;;;5068433;28;20358;-70
2022/01/15 03:32:55;;;;;;;7.57;6.00;;;2.10;99.90;;;;;;5080594;28;20221;-67
2022/01/15 03:35:22;;;;;;;11.27;5.43;;;2.10;99.90;;;;;;5081557;28;20265;-66
2022/01/15 03:37:48;;;;;;;7.78;4.50;;;2.10;99.90;;;;;;5082871;28;20316;-66
2022/01/15 03:40:16;;;;;;;6.55;5.70;;;2.10;99.90;;;;;;5085659;28;20208;-67
2022/01/15 03:42:43;;;;;;;6.82;4.95;;;2.10;99.90;;;;;;5081495;28;20221;-66
2022/01/15 03:45:14;;;;;;;7.57;4.93;;;2.10;99.90;;;;;;5086675;28;20220;-66
2022/01/15 03:47:40;;;;;;;15.82;5.20;;;2.10;99.90;;;;;;5075854;28;20263;-67
2022/01/15 03:50:08;;;;;;;7.43;3.72;;;2.10;99.90;;;;;;5095948;28;20634;-66
2022/01/15 03:52:35;;;;;;;7.40;3.45;;;2.10;99.90;;;;;;5094202;28;20294;-67
2022/01/15 03:55:02;;;;;;;8.32;4.60;;;2.10;99.90;;;;;;5092027;28;20212;-67
2022/01/15 03:57:29;;;;;;;7.00;4.15;;;2.10;99.90;;;;;;5079067;28;20282;-66
2022/01/15 03:59:55;;;;;;;9.23;5.95;;;2.10;99.90;;;;;;5085429;28;20208;-68
2022/01/15 04:02:23;;;;;;;5.38;4.88;;;2.10;99.90;;;;;;5069139;28;20609;-68
2022/01/15 04:04:50;;;;;;;10.20;6.35;;;2.10;99.90;;;;;;5067808;28;20290;-68
2022/01/15 04:07:17;;;;;;;8.05;4.65;;;2.20;99.90;;;;;;5086962;28;20208;-66
2022/01/15 04:09:43;;;;;;;4.68;4.13;;;2.10;99.90;;;;;;5086535;28;20219;-66
2022/01/15 04:12:10;;;;;;;5.70;5.10;;;2.10;99.90;;;;;;5077012;28;20316;-66
2022/01/15 04:14:37;;;;;;;4.95;4.45;;;2.00;99.90;;;;;;5067618;28;20651;-67
2022/01/15 04:17:04;;;;;;;7.45;5.10;;;1.90;99.90;;;;;;5085797;28;20587;-68
2022/01/15 04:19:33;;;;;;;5.85;4.72;;;1.90;99.90;;;;;;5074034;28;20276;-66
2022/01/15 04:22:00;;;;;;;6.00;5.07;;;1.80;99.90;;;;;;5086573;28;20224;-66
2022/01/15 04:24:26;;;;;;;5.35;4.15;;;1.80;99.90;;;;;;5083347;28;20628;-66
2022/01/15 04:26:53;;;;;;;5.95;3.70;;;1.80;99.90;;;;;;5077797;28;20292;-66
2022/01/15 04:29:21;;;;;;;5.00;4.57;;;1.70;99.90;;;;;;5084474;28;20220;-66
2022/01/15 04:31:48;;;;;;;5.93;3.95;;;1.70;99.90;;;;;;5086900;28;20231;-66
2022/01/15 04:34:17;;;;;;;4.75;3.13;;;1.70;99.90;;;;;;5089767;28;20770;-67
2022/01/15 04:36:45;;;;;;;3.58;3.28;;;1.70;99.90;;;;;;5077168;28;20221;-65
2022/01/15 04:39:12;;;;;;;5.82;5.22;;;1.70;99.90;;;;;;5082656;28;20576;-66
2022/01/15 04:41:39;;;;;;;6.15;4.47;;;1.70;99.90;;;;;;5075036;28;20246;-67
2022/01/15 04:44:06;;;;;;;9.23;5.07;;;1.80;99.90;;;;;;5076753;28;20282;-68
2022/01/15 04:46:34;;;;;;;6.72;4.53;;;1.80;99.90;;;;;;5089996;28;20272;-66
2022/01/15 04:49:01;;;;;;;4.18;3.88;;;1.80;99.90;;;;;;5085346;28;20217;-66
2022/01/15 04:51:27;;;;;;;4.10;3.33;;;1.70;99.90;;;;;;5085301;28;20283;-66
2022/01/15 04:53:55;;;;;;;10.43;4.88;;;1.70;99.90;;;;;;5077805;28;20225;-68
2022/01/15 04:56:22;;;;;;;4.85;4.35;;;1.60;99.90;;;;;;5090072;28;20201;-67
2022/01/15 04:58:49;;;;;;;4.40;4.03;;;1.50;99.90;;;;;;5081287;28;20204;-66
2022/01/15 05:01:16;;;;;;;3.40;3.20;;;1.40;99.90;;;;;;5087820;28;20213;-66
2022/01/15 05:03:43;;;;;;;3.65;3.35;;;1.40;99.90;;;;;;5099661;22;20233;-66
2022/01/15 05:06:10;;;;;;;6.15;4.97;;;1.40;99.90;;;;;;5085560;28;20204;-65
2022/01/15 05:08:36;;;;;;;4.75;3.83;;;1.40;99.90;;;;;;5090979;28;20201;-65
2022/01/15 05:11:13;;;;;;;5.55;5.05;;;1.30;99.90;;;;;;5090524;28;20204;-66
2022/01/15 05:13:39;;;;;;;4.75;3.60;;;1.30;99.90;;;;;;5079324;28;20232;-66
2022/01/15 05:16:07;;;;;;;5.40;3.50;;;1.30;99.90;;;;;;5084070;28;20220;-65
2022/01/15 05:18:33;;;;;;;3.78;3.20;;;1.30;99.90;;;;;;5077999;28;20252;-66
2022/01/15 05:21:00;;;;;;;5.65;2.95;;;1.30;99.90;;;;;;5078856;28;20201;-65
2022/01/15 05:23:27;;;;;;;3.28;3.08;;;1.40;99.90;;;;;;5091382;28;20235;-65
2022/01/15 05:25:53;;;;;;;6.22;5.28;;;1.30;99.90;;;;;;5086674;28;20201;-66
2022/01/15 05:28:21;;;;;;;5.45;4.07;;;1.40;99.90;;;;;;5089808;28;20246;-66
2022/01/15 05:30:48;;;;;;;5.20;4.05;;;1.40;99.90;;;;;;5089627;28;20201;-66
2022/01/15 05:33:16;;;;;;;4.82;4.10;;;1.40;99.90;;;;;;5089142;28;20216;-66
2022/01/15 05:35:42;;;;;;;4.43;4.07;;;1.30;99.90;;;;;;5084944;28;20201;-64
2022/01/15 05:38:09;;;;;;;4.45;2.97;;;1.30;99.90;;;;;;5092067;28;20220;-65
2022/01/15 05:40:36;;;;;;;5.70;4.78;;;1.20;99.90;;;;;;5084610;28;20200;-65
2022/01/15 05:43:03;;;;;;;7.47;4.47;;;1.30;99.90;;;;;;5083571;28;20224;-64
2022/01/15 05:45:31;;;;;;;2.92;2.72;;;1.30;99.90;;;;;;5082090;28;20383;-64
2022/01/15 05:47:58;;;;;;;4.47;3.58;;;1.30;99.90;;;;;;5083488;28;20560;-66
2022/01/15 05:50:24;;;;;;;4.75;3.80;;;1.30;99.90;;;;;;5089432;28;20721;-66
2022/01/15 05:52:51;;;;;;;4.20;3.80;;;1.20;99.90;;;;;;5091401;28;20221;-64
2022/01/15 05:55:17;;;;;;;6.38;4.30;;;1.20;99.90;;;;;;5079632;28;20585;-65
2022/01/15 05:57:44;;;;;;;5.65;4.43;;;1.30;99.90;;;;;;5091584;28;20636;-66
2022/01/15 06:00:11;;;;;;;5.78;3.78;;;1.20;99.90;;;;;;5086689;28;20524;-66
2022/01/15 06:02:39;;;;;;;5.72;4.50;;;1.30;99.90;;;;;;5086337;28;20294;-65
2022/01/15 06:05:06;;;;;;;5.45;4.30;;;1.30;99.90;;;;;;5086113;28;20270;-66
2022/01/15 06:07:33;;;;;;;4.10;3.70;;;1.30;99.90;;;;;;5090265;28;20254;-65
2022/01/15 06:10:00;;;;;;;5.80;5.30;;;1.30;99.90;;;;;;5086612;28;20205;-66
2022/01/15 06:12:30;;;;;;;9.85;4.03;;;1.30;99.90;;;;;;5078055;28;20212;-64
2022/01/15 06:14:57;;;;;;;4.82;3.22;;;1.30;99.90;;;;;;5080706;28;20289;-65
2022/01/15 06:17:24;;;;;;;13.48;3.63;;;1.40;99.90;;;;;;5081093;28;20271;-64
2022/01/15 06:19:52;;;;;;;3.65;3.35;;;1.40;99.90;;;;;;5081417;28;20204;-66
2022/01/15 06:22:18;;;;;;;4.18;2.80;;;1.40;99.90;;;;;;5086572;28;20225;-66
2022/01/15 06:24:45;;;;;;;5.15;2.95;;;1.40;99.90;;;;;;5073745;28;20568;-64
2022/01/15 06:27:12;;;;;;;3.78;3.38;;;1.40;99.90;;;;;;5086324;28;20200;-66
2022/01/15 06:29:39;;;;;;;5.72;5.18;;;1.40;99.90;;;;;;5084172;28;20257;-65
2022/01/15 06:32:06;;;;;;;4.80;4.32;;;1.40;99.90;;;;;;5089180;28;20671;-65
2022/01/15 06:34:33;;;;;;;7.50;5.32;;;1.40;99.90;;;;;;5081382;28;20220;-65
2022/01/15 06:37:01;;;;;;;5.80;5.30;;;1.50;99.90;;;;;;5086932;28;20735;-66
2022/01/15 06:39:28;;;;;;;5.15;4.65;;;1.50;99.90;;;;;;5086223;28;20249;-64
2022/01/15 06:41:54;;;;;;;5.47;4.65;;;1.50;99.90;;;;;;5078565;28;20772;-65
2022/01/15 06:44:21;;;;;;;6.65;3.03;;;1.50;99.90;;;;;;5084710;28;20231;-65
2022/01/15 06:46:48;;;;;;;4.03;3.47;;;1.50;99.90;;;;;;5087106;28;20209;-64
2022/01/15 06:49:14;;;;;;;4.15;3.30;;;1.60;99.90;;;;;;5083839;28;20205;-64
2022/01/15 06:51:41;;;;;;;3.90;2.90;;;1.60;99.90;;;;;;5077794;28;20204;-65
2022/01/15 06:54:09;;;;;;;3.88;3.33;;;1.60;99.90;;;;;;5086237;28;20232;-64
2022/01/15 06:56:35;;;;;;;5.63;4.15;;;1.60;99.90;;;;;;5088823;28;20735;-66
2022/01/15 06:59:02;;;;;;;5.63;3.90;;;1.60;99.90;;;;;;5087990;28;20228;-66
2022/01/15 07:01:29;;;;;;;3.50;3.30;;;1.60;99.90;;;;;;5088306;28;20201;-64
2022/01/15 07:03:56;;;;;;;5.38;3.65;;;1.60;99.90;;;;;;5053052;28;1055345;-64
2022/01/15 07:06:22;;;;;;;6.25;3.53;;;1.60;99.90;;;;;;5088095;28;20258;-64
2022/01/15 07:08:49;;;;;;;3.67;3.38;;;1.60;99.90;;;;;;5088511;28;20254;-64
2022/01/15 07:11:17;;;;;;;3.60;3.33;;;1.60;99.90;;;;;;5084202;28;20201;-64
2022/01/15 07:13:43;;;;;;;4.05;3.50;;;1.60;99.90;;;;;;5089186;28;20221;-64
2022/01/15 07:16:10;;;;;;;8.27;4.38;;;1.60;99.90;;;;;;5089565;28;20261;-65
2022/01/15 07:18:37;;;;;;;3.45;3.22;;;1.60;99.90;;;;;;5078527;28;20279;-64
2022/01/15 07:21:03;;;;;;;5.85;3.47;;;1.60;99.90;;;;;;5080260;28;20201;-65
2022/01/15 07:23:30;;;;;;;4.50;3.67;;;1.60;99.90;;;;;;5086275;28;20297;-65
2022/01/15 07:25:57;;;;;;;5.28;4.25;;;1.60;99.90;;;;;;5088562;28;20231;-65
2022/01/15 07:28:27;;;;;;;3.63;2.83;;;1.70;99.90;;;;;;5089631;28;20196;-65
2022/01/15 07:30:54;;;;;;;4.07;3.75;;;1.70;99.90;;;;;;5077348;28;20263;-65
2022/01/15 07:33:20;;;;;;;3.28;3.03;;;1.70;99.90;;;;;;5087747;28;20229;-66
2022/01/15 07:35:47;;;;;;;3.13;2.47;;;1.70;99.90;;;;;;5080714;28;20212;-64
2022/01/15 07:38:17;;;;;;;5.68;4.90;;;1.70;99.90;;;;;;5087674;28;20444;-65
2022/01/15 07:40:44;;;;;;;3.83;3.47;;;1.70;99.90;;;;;;5086084;28;20633;-65
2022/01/15 07:43:11;;;;;;;6.40;3.22;;;1.70;99.90;;;;;;5089504;28;20228;-65
2022/01/15 07:45:39;;;;;;;3.40;3.10;;;1.80;99.90;;;;;;5089335;28;20263;-64
2022/01/15 07:48:06;;;;;;;4.00;3.70;;;1.80;99.90;;;;;;5079599;28;20260;-64
2022/01/15 07:50:32;;;;;;;4.18;3.70;;;1.80;99.90;;;;;;5076767;28;20444;-64
2022/01/15 07:52:59;;;;;;;2.72;2.50;;;1.80;99.90;;;;;;5083589;28;20639;-64
2022/01/15 07:55:26;;;;;;;3.85;3.50;;;1.80;99.90;;;;;;5082459;28;20201;-64
2022/01/15 07:57:53;;;;;;;6.35;3.55;;;1.80;99.90;;;;;;5089430;28;20224;-65
2022/01/15 08:00:21;;;;;;;8.15;4.28;;;1.90;99.90;;;;;;5080535;28;20205;-65
2022/01/15 08:02:49;;;;;;;5.97;3.50;;;1.90;99.90;;;;;;5088980;28;20899;-65
2022/01/15 08:05:16;;;;;;;3.30;3.00;;;1.90;99.90;;;;;;5081439;28;20690;-70
2022/01/15 08:07:43;;;;;;;3.85;3.55;;;2.00;99.90;;;;;;5087242;28;20582;-69
2022/01/15 08:10:10;;;;;;;6.35;4.97;;;2.10;99.90;;;;;;5084138;28;20231;-70
2022/01/15 08:12:43;;;;;;;4.63;3.38;;;2.10;99.90;;;;;;5079155;28;20640;-71
2022/01/15 08:15:10;;;;;;;4.07;3.78;;;2.10;99.90;;;;;;5085729;28;20655;-69
2022/01/15 08:17:36;;;;;;;7.63;5.05;;;2.10;99.90;;;;;;5088547;28;20266;-71
2022/01/15 08:20:05;;;;;;;4.20;3.10;;;2.10;99.90;;;;;;5088819;28;20213;-73
2022/01/15 08:22:32;;;;;;;4.63;4.22;;;2.10;99.90;;;;;;5088984;28;20224;-69
2022/01/15 08:24:58;;;;;;;4.15;3.80;;;2.10;99.90;;;;;;5084087;28;20203;-68
2022/01/15 08:27:25;;;;;;;4.03;3.58;;;2.10;99.90;;;;;;5087261;28;20620;-69
2022/01/15 08:29:52;;;;;;;4.57;4.20;;;2.10;99.90;;;;;;5085843;28;20200;-71
2022/01/15 08:32:19;;;;;;;3.20;3.00;;;2.10;99.90;;;;;;5088973;28;20220;-75
2022/01/15 08:34:46;;;;;;;4.80;3.63;;;2.10;99.90;;;;;;5088260;28;20205;-71
2022/01/15 08:37:14;;;;;;;3.45;3.15;;;2.10;99.90;;;;;;5075002;28;20397;-69
2022/01/15 08:39:40;;;;;;;4.72;3.55;;;2.20;99.90;;;;;;5081099;28;20225;-70
2022/01/15 08:42:09;;;;;;;5.28;3.40;;;2.20;99.90;;;;;;5089021;28;20259;-69
2022/01/15 08:44:42;;;;;;;3.35;2.90;;;2.20;99.90;;;;;;5085356;28;20293;-69
2022/01/15 08:47:09;;;;;;;4.53;2.80;;;2.20;99.90;;;;;;5092742;28;20205;-71
2022/01/15 08:49:37;;;;;;;3.70;3.35;;;2.20;99.90;;;;;;5088971;28;20197;-69
2022/01/15 08:52:04;;;;;;;4.32;2.85;;;2.20;99.90;;;;;;5079101;28;20202;-69
2022/01/15 08:54:33;;;;;;;2.67;2.47;;;2.20;99.90;;;;;;5085047;28;20204;-70
2022/01/15 08:57:00;;;;;;;3.72;3.38;;;2.20;99.90;;;;;;5080613;28;20201;-70
2022/01/15 08:59:27;;;;;;;5.07;4.57;;;2.20;99.90;;;;;;5081733;28;20270;-69
2022/01/15 09:01:55;;;;;;;4.43;4.03;;;2.30;99.90;;;;;;5087859;28;20204;-70
2022/01/15 09:04:22;;;;;;;5.30;3.53;;;2.30;99.90;;;;;;5092493;28;20734;-69
2022/01/15 09:06:48;;;;;;;4.68;3.63;;;2.30;99.90;;;;;;5085691;28;20461;-70
2022/01/15 09:09:15;;;;;;;13.65;4.55;;;2.30;99.90;;;;;;5085825;28;20354;-69
2022/01/15 09:11:43;;;;;;;4.72;2.67;;;2.30;99.90;;;;;;5090351;28;20200;-71
2022/01/15 09:14:11;;;;;;;4.68;4.20;;;2.30;99.90;;;;;;5080056;28;20282;-70
2022/01/15 09:16:38;;;;;;;4.18;3.17;;;2.30;99.90;;;;;;5091215;28;20581;-70
2022/01/15 09:19:05;;;;;;;3.80;3.00;;;2.30;99.90;;;;;;5088604;28;20220;-70
2022/01/15 09:21:32;;;;;;;4.95;3.78;;;2.30;99.90;;;;;;5082693;28;20411;-72
2022/01/15 09:23:59;;;;;;;3.15;2.85;;;2.40;99.90;;;;;;5087485;28;20217;-70
2022/01/15 09:26:46;;;;;;;3.40;3.20;;;2.40;99.90;;;;;;5087656;28;20205;-71
2022/01/15 09:32:00;;;;;;;6.20;4.70;;;2.50;99.90;;;;;;5089792;28;20216;-70
2022/01/15 09:34:27;;;;;;;5.05;4.25;;;2.50;99.90;;;;;;5085869;28;20211;-70
2022/01/15 09:36:54;;;;;;;3.00;2.67;;;2.50;99.90;;;;;;5091444;28;20624;-70
2022/01/15 09:39:23;;;;;;;3.45;3.15;;;2.60;99.90;;;;;;5076510;28;20267;-71
2022/01/15 09:41:54;;;;;;;3.80;2.97;;;2.60;99.90;;;;;;5088727;28;20212;-72
2022/01/15 09:44:22;;;;;;;3.65;2.70;;;2.70;99.90;;;;;;5083087;28;20227;-71
2022/01/15 09:46:50;;;;;;;4.40;3.70;;;2.70;99.90;;;;;;5082398;28;20559;-70
2022/01/15 09:49:18;;;;;;;3.20;2.80;;;2.70;99.90;;;;;;5083981;28;20204;-71
2022/01/15 09:51:45;;;;;;;4.43;3.90;;;2.70;99.90;;;;;;5090847;28;20205;-70
2022/01/15 09:54:12;;;;;;;3.70;3.40;;;2.70;99.90;;;;;;5078451;28;20220;-72
2022/01/15 09:56:39;;;;;;;4.47;3.03;;;2.70;99.90;;;;;;5083417;28;20201;-71
2022/01/15 09:59:06;;;;;;;4.75;3.28;;;2.80;99.90;;;;;;5084487;28;20284;-73
2022/01/15 10:01:34;;;;;;;6.03;4.78;;;2.80;99.90;;;;;;5076604;28;20271;-70
2022/01/15 10:04:01;;;;;;;4.05;3.55;;;2.80;99.90;;;;;;5087420;28;20239;-69
2022/01/15 10:06:28;;;;;;;4.32;3.92;;;2.80;99.90;;;;;;5087668;28;20212;-70
2022/01/15 10:09:03;;;;;;;3.85;3.55;;;2.80;99.90;;;;;;5083490;28;20599;-70
2022/01/15 10:11:45;;;;;;;4.57;4.07;;;2.80;99.90;;;;;;5089999;28;20208;-69
2022/01/15 10:14:25;;;;;;;3.15;2.70;;;2.70;99.90;;;;;;5088866;28;20282;-68
2022/01/15 10:16:55;;;;;;;3.97;3.50;;;2.70;99.90;;;;;;5085217;28;20672;-68
2022/01/15 10:19:26;;;;;;;5.43;4.93;;;2.60;99.90;;;;;;5089037;28;20590;-68
2022/01/15 10:22:09;;;;;;;3.65;3.28;;;2.60;99.90;;;;;;5090903;28;20204;-68
2022/01/15 10:24:36;;;;;;;2.97;2.72;;;2.60;99.90;;;;;;5088233;28;20658;-69
2022/01/15 10:27:23;;;;;;;6.43;4.15;;;2.60;99.90;;;;;;5085878;28;20735;-68
2022/01/15 10:29:52;;;;;;;2.85;2.15;;;2.60;99.90;;;;;;5076631;28;20205;-70
2022/01/15 10:32:20;;;;;;;4.05;2.53;;;2.60;99.90;;;;;;5083072;28;20280;-69
2022/01/15 10:34:47;;;;;;;5.30;4.22;;;2.60;99.90;;;;;;5085756;28;20200;-69
2022/01/15 10:37:16;;;;;;;4.03;2.40;;;2.60;99.90;;;;;;5072959;28;20201;-68
2022/01/15 10:39:54;;;;;;;2.42;2.22;;;2.60;99.90;;;;;;5086068;28;20224;-68
2022/01/15 10:42:23;;;;;;;4.28;3.40;;;2.60;99.90;;;;;;5083722;28;20728;-71
2022/01/15 10:44:51;;;;;;;3.55;2.53;;;2.70;99.90;;;;;;5078899;28;20194;-68
2022/01/15 10:47:21;;;;;;;3.53;3.22;;;2.80;99.90;;;;;;5080914;28;20572;-69
2022/01/15 10:49:48;;;;;;;4.43;3.00;;;2.80;99.90;;;;;;5078855;28;20258;-68
2022/01/15 10:52:17;;;;;;;6.95;3.55;;;2.90;99.90;;;;;;5087443;28;20262;-68
2022/01/15 10:55:03;;;;;;;3.10;2.88;;;2.90;99.90;;;;;;5078041;28;20301;-68
2022/01/15 10:57:33;;;;;;;5.53;3.88;;;3.00;99.90;;;;;;5084296;28;20197;-71
2022/01/15 11:00:07;;;;;;;4.90;3.45;;;3.00;99.90;;;;;;5082522;28;20217;-68
2022/01/15 11:05:25;;;;;;;4.60;3.60;;;3.00;99.90;;;;;;5070353;28;20459;-67
2022/01/15 11:07:52;;;;;;;3.15;2.70;;;3.10;99.90;;;;;;5067113;28;20204;-66
2022/01/15 11:10:20;;;;;;;3.45;3.10;;;3.10;99.90;;;;;;5072866;28;20216;-67
2022/01/15 11:12:47;;;;;;;3.58;2.90;;;3.10;99.90;;;;;;5077085;28;20198;-66
2022/01/15 11:15:13;;;;;;;3.22;2.50;;;3.20;99.90;;;;;;5068104;28;20658;-66
2022/01/15 11:17:42;;;;;;;2.92;2.60;;;3.20;99.90;;;;;;5067923;28;20193;-66
2022/01/15 11:20:13;;;;;;;3.75;3.45;;;3.20;99.90;;;;;;5071543;28;20290;-66
2022/01/15 11:22:42;;;;;;;4.45;3.15;;;3.20;99.90;;;;;;5084751;28;20276;-66
2022/01/15 11:25:12;;;;;;;4.43;2.67;;;3.20;99.90;;;;;;5098305;28;20220;-65
2022/01/15 11:27:40;;;;;;;4.30;3.15;;;3.20;99.90;;;;;;5085734;28;20198;-66
2022/01/15 11:30:07;;;;;;;4.90;3.67;;;3.20;99.90;;;;;;5075083;28;20474;-64
2022/01/15 11:32:35;;;;;;;3.60;2.85;;;3.20;99.90;;;;;;5080262;28;20209;-67
2022/01/15 11:35:06;;;;;;;4.60;3.08;;;3.20;99.90;;;;;;5088829;28;20287;-66
2022/01/15 11:37:42;;;;;;;4.07;2.15;;;3.30;99.90;;;;;;5082213;28;20217;-64
2022/01/15 11:40:40;;;;;;;5.65;3.60;;;3.30;99.90;;;;;;5077521;28;20312;-69
2022/01/15 11:43:39;;;;;;;4.18;3.25;;;3.30;99.90;;;;;;4990882;28;20277;-65
2022/01/15 11:46:22;;;;;;;2.92;2.67;;;3.40;99.90;;;;;;5075982;28;20204;-65
2022/01/15 11:48:49;;;;;;;3.63;3.00;;;3.40;99.90;;;;;;5073325;28;20474;-66
2022/01/15 11:51:27;;;;;;;2.97;2.75;;;3.40;99.90;;;;;;5069176;28;20209;-65
2022/01/15 11:53:57;;;;;;;4.35;3.75;;;3.30;99.90;;;;;;5073946;28;20671;-64
2022/01/15 11:56:26;;;;;;;5.03;3.05;;;3.30;99.90;;;;;;5074730;28;20209;-65
2022/01/15 11:58:54;;;;;;;3.75;3.03;;;3.30;99.90;;;;;;5076331;28;20284;-65
2022/01/15 12:01:38;;;;;;;5.28;3.88;;;3.30;99.90;;;;;;5083218;28;20240;-65
2022/01/15 12:04:27;;;;;;;3.75;2.80;;;3.30;99.90;;;;;;5075792;28;20307;-65
2022/01/15 12:07:18;;;;;;;2.90;2.60;;;3.40;99.90;;;;;;5072160;28;20202;-65
2022/01/15 12:09:46;;;;;;;4.30;3.55;;;3.40;99.90;;;;;;5067831;28;20220;-69
2022/01/15 12:12:45;;;;;;;6.60;4.40;;;3.40;99.90;;;;;;5077888;28;20501;-66
2022/01/15 12:15:17;;;;;;;2.75;2.55;;;3.50;99.90;;;;;;5076838;28;20303;-68
2022/01/15 12:17:46;;;;;;;4.70;2.55;;;3.60;99.90;;;;;;5082976;28;20211;-69
2022/01/15 12:20:35;;;;;;;2.47;2.28;;;3.70;99.90;;;;;;5081226;28;20213;-68
2022/01/15 12:23:05;;;;;;;3.47;2.95;;;3.70;99.90;;;;;;5086000;28;20247;-69
2022/01/15 12:25:34;;;;;;;4.25;2.92;;;3.70;99.90;;;;;;5081284;28;20289;-70
2022/01/15 12:28:04;;;;;;;4.28;3.10;;;3.70;99.90;;;;;;5089787;28;20341;-68
2022/01/15 12:30:32;;;;;;;3.15;2.65;;;3.70;99.90;;;;;;5072013;28;20205;-67
2022/01/15 12:33:01;;;;;;;2.42;2.25;;;3.70;99.90;;;;;;5076787;28;20213;-68
2022/01/15 12:35:30;;;;;;;3.40;3.20;;;3.70;99.90;;;;;;5076870;28;20201;-69
2022/01/15 12:38:05;;;;;;;4.57;3.85;;;3.70;99.90;;;;;;5074957;28;20201;-70
2022/01/15 12:40:35;;;;;;;2.40;2.10;;;3.70;99.90;;;;;;5076906;28;20224;-68
2022/01/15 12:43:04;;;;;;;3.53;3.10;;;3.70;99.90;;;;;;5088852;28;20220;-68
2022/01/15 12:45:30;;;;;;;3.80;3.38;;;3.60;99.90;;;;;;5079009;28;20214;-68
2022/01/15 12:47:58;;;;;;;4.50;4.10;;;3.70;99.90;;;;;;5075615;28;20236;-68
2022/01/15 12:50:26;;;;;;;3.90;3.58;;;3.70;99.90;;;;;;5080764;28;20246;-68
2022/01/15 12:53:00;;;;;;;3.67;3.38;;;3.70;99.90;;;;;;5092903;28;20197;-69
2022/01/15 12:55:31;;;;;;;4.03;3.67;;;3.70;99.90;;;;;;5078449;28;20271;-69
2022/01/15 12:57:58;;;;;;;2.50;2.30;;;3.70;99.90;;;;;;5089456;28;20470;-69
2022/01/15 13:00:26;;;;;;;3.35;2.55;;;3.70;99.90;;;;;;5091911;28;20327;-69
2022/01/15 13:02:56;;;;;;;3.03;2.60;;;3.70;99.90;;;;;;5093050;28;20220;-71
2022/01/15 13:05:26;;;;;;;2.60;2.00;;;3.70;99.90;;;;;;5083585;28;20211;-68
2022/01/15 13:07:55;;;;;;;2.03;1.92;;;3.70;99.90;;;;;;5092631;28;20340;-69
2022/01/15 13:10:33;;;;;;;3.22;2.95;;;3.60;99.90;;;;;;5080194;28;20570;-71
2022/01/15 13:13:01;;;;;;;3.53;3.20;;;3.50;99.90;;;;;;5081717;28;20655;-68
2022/01/15 13:15:29;;;;;;;5.05;2.97;;;3.50;99.90;;;;;;5069787;28;20261;-69
2022/01/15 13:17:56;;;;;;;2.63;2.42;;;3.50;99.90;;;;;;5074002;28;20205;-68